createdAt,value
2023-04-11T00:02:06.884Z,48.00
2023-04-11T00:04:34.568Z,48.00
2023-04-11T00:07:01.482Z,47.90
2023-04-11T00:09:28.345Z,47.80
2023-04-11T00:11:56.787Z,47.80
2023-04-11T00:14:23.795Z,47.80
2023-04-11T00:16:53.707Z,47.80
2023-04-11T00:19:23.500Z,47.70
2023-04-11T00:21:51.058Z,47.70
2023-04-11T00:24:18.322Z,47.60
2023-04-11T00:26:45.320Z,47.60
2023-04-11T00:29:12.164Z,47.50
2023-04-11T00:31:39.066Z,47.50
2023-04-11T00:34:05.900Z,47.50
2023-04-11T00:36:32.846Z,47.50
2023-04-11T00:39:01.394Z,47.60
2023-04-11T00:41:28.610Z,47.40
2023-04-11T00:43:55.491Z,47.40
2023-04-11T00:46:22.551Z,47.40
2023-04-11T00:48:49.957Z,47.30
2023-04-11T00:51:17.662Z,47.20
2023-04-11T00:53:45.828Z,47.20
2023-04-11T00:56:13.159Z,47.30
2023-04-11T00:58:41.428Z,47.20
2023-04-11T01:01:11.272Z,47.20
2023-04-11T01:03:41.565Z,47.10
2023-04-11T01:06:14.992Z,47.00
2023-04-11T01:08:43.862Z,46.90
2023-04-11T01:11:12.830Z,47.20
2023-04-11T01:13:41.893Z,47.20
2023-04-11T01:16:12.794Z,47.00
2023-04-11T01:18:39.679Z,47.10
2023-04-11T01:21:07.119Z,47.00
2023-04-11T01:23:34.420Z,47.10
2023-04-11T01:26:01.392Z,47.10
2023-04-11T01:28:28.282Z,47.00
2023-04-11T01:30:55.116Z,47.00
2023-04-11T01:33:22.170Z,46.90
2023-04-11T01:35:49.303Z,47.00
2023-04-11T01:38:16.306Z,47.00
2023-04-11T01:40:45.360Z,47.00
2023-04-11T01:43:12.512Z,47.10
2023-04-11T01:45:41.005Z,47.10
2023-04-11T01:48:08.712Z,47.10
2023-04-11T01:50:35.944Z,47.10
2023-04-11T01:53:02.825Z,47.00
2023-04-11T01:55:29.738Z,47.10
2023-04-11T01:57:56.641Z,47.20
2023-04-11T02:00:24.169Z,47.30
2023-04-11T02:02:51.225Z,47.20
2023-04-11T02:05:18.448Z,47.20
2023-04-11T02:07:45.263Z,47.30
2023-04-11T02:10:12.133Z,46.90
2023-04-11T02:12:39.034Z,47.00
2023-04-11T02:15:06.778Z,47.10
2023-04-11T02:17:33.659Z,47.10
2023-04-11T02:20:01.127Z,47.10
2023-04-11T02:22:28.042Z,47.20
2023-04-11T02:24:54.937Z,46.90
2023-04-11T02:27:22.345Z,47.00
2023-04-11T02:29:49.196Z,46.80
2023-04-11T02:32:16.190Z,46.70
2023-04-11T02:34:43.118Z,46.80
2023-04-11T02:37:10.245Z,46.70
2023-04-11T02:39:37.090Z,46.60
2023-04-11T02:42:04.113Z,46.30
2023-04-11T02:44:31.190Z,46.10
2023-04-11T02:47:01.308Z,46.10
2023-04-11T02:49:28.213Z,45.70
2023-04-11T02:51:55.072Z,45.90
2023-04-11T02:54:21.893Z,45.70
2023-04-11T02:56:48.746Z,45.70
2023-04-11T02:59:15.603Z,45.70
2023-04-11T03:01:42.501Z,45.70
2023-04-11T03:04:09.358Z,45.50
2023-04-11T03:06:36.336Z,45.40
2023-04-11T03:09:03.980Z,45.30
2023-04-11T03:11:30.955Z,45.20
2023-04-11T03:13:57.904Z,45.20
2023-04-11T03:16:25.655Z,45.00
2023-04-11T03:18:52.556Z,44.60
2023-04-11T03:21:19.450Z,44.60
2023-04-11T03:23:46.341Z,44.50
2023-04-11T03:26:14.377Z,44.40
2023-04-11T03:28:41.191Z,44.10
2023-04-11T03:31:08.119Z,44.30
2023-04-11T03:33:35.014Z,44.80
2023-04-11T03:36:01.890Z,44.90
2023-04-11T03:38:29.311Z,45.10
2023-04-11T03:40:56.410Z,45.10
2023-04-11T03:43:23.404Z,45.00
2023-04-11T03:45:51.697Z,45.20
2023-04-11T03:48:20.011Z,45.30
2023-04-11T03:50:47.337Z,45.20
2023-04-11T03:53:14.144Z,45.40
2023-04-11T03:55:41.259Z,45.40
2023-04-11T03:58:08.164Z,45.50
2023-04-11T04:00:35.005Z,45.10
2023-04-11T04:03:02.016Z,45.10
2023-04-11T04:05:29.006Z,45.00
2023-04-11T04:07:56.142Z,45.30
2023-04-11T04:10:23.201Z,45.60
2023-04-11T04:12:50.177Z,46.40
2023-04-11T04:15:17.119Z,46.90
2023-04-11T04:17:44.305Z,47.60
2023-04-11T04:20:11.742Z,47.70
2023-04-11T04:22:38.758Z,47.80
2023-04-11T04:25:06.498Z,47.50
2023-04-11T04:27:33.462Z,47.30
2023-04-11T04:30:03.542Z,46.90
2023-04-11T04:32:31.501Z,46.70
2023-04-11T04:34:58.999Z,46.30
2023-04-11T04:37:27.275Z,46.10
2023-04-11T04:39:56.743Z,46.10
2023-04-11T04:42:30.039Z,45.90
2023-04-11T04:44:57.527Z,45.20
2023-04-11T04:47:31.400Z,45.40
2023-04-11T04:49:59.838Z,45.50
2023-04-11T04:52:28.539Z,45.60
2023-04-11T04:55:01.138Z,46.80
2023-04-11T04:57:29.871Z,47.30
2023-04-11T04:59:58.417Z,48.40
2023-04-11T05:02:26.756Z,49.30
2023-04-11T05:04:57.822Z,49.60
2023-04-11T05:07:24.596Z,49.50
2023-04-11T05:09:51.456Z,47.50
2023-04-11T05:12:21.406Z,50.70
2023-04-11T05:14:48.236Z,51.20
2023-04-11T05:17:15.078Z,51.20
2023-04-11T05:19:41.887Z,51.60
2023-04-11T05:22:08.734Z,51.30
2023-04-11T05:24:35.512Z,51.40
2023-04-11T05:27:02.363Z,51.70
2023-04-11T05:29:30.003Z,52.50
2023-04-11T05:31:56.848Z,52.70
2023-04-11T05:34:23.694Z,53.10
2023-04-11T05:36:50.944Z,53.30
2023-04-11T05:39:17.793Z,53.80
2023-04-11T05:41:44.604Z,54.10
2023-04-11T05:44:11.404Z,54.20
2023-04-11T05:46:38.511Z,54.60
2023-04-11T05:49:05.650Z,54.60
2023-04-11T05:51:32.432Z,54.80
2023-04-11T05:53:59.269Z,55.00
2023-04-11T05:56:26.100Z,55.20
2023-04-11T05:58:53.048Z,55.40
2023-04-11T06:01:19.846Z,55.70
2023-04-11T06:03:47.296Z,55.90
2023-04-11T06:06:14.630Z,56.30
2023-04-11T06:08:41.597Z,56.50
2023-04-11T06:11:08.763Z,56.80
2023-04-11T06:13:35.662Z,56.90
2023-04-11T06:16:02.647Z,57.00
2023-04-11T06:18:29.561Z,57.10
2023-04-11T06:20:56.461Z,57.10
2023-04-11T06:23:23.305Z,57.30
2023-04-11T06:25:50.389Z,57.40
2023-04-11T06:28:17.268Z,57.50
2023-04-11T06:30:44.116Z,57.60
2023-04-11T06:33:11.033Z,57.70
2023-04-11T06:35:37.962Z,57.70
2023-04-11T06:38:04.837Z,57.70
2023-04-11T06:40:31.744Z,57.80
2023-04-11T06:43:00.160Z,57.80
2023-04-11T06:45:27.115Z,57.80
2023-04-11T06:47:54.057Z,58.00
2023-04-11T06:50:20.939Z,58.20
2023-04-11T06:52:47.760Z,58.40
2023-04-11T06:55:15.580Z,58.70
2023-04-11T06:57:44.156Z,59.20
2023-04-11T07:00:13.022Z,59.70
2023-04-11T07:02:40.130Z,60.30
2023-04-11T07:05:09.372Z,61.00
2023-04-11T07:07:36.641Z,61.70
2023-04-11T07:10:05.091Z,62.10
2023-04-11T07:12:31.949Z,62.60
2023-04-11T07:14:58.837Z,63.20
2023-04-11T07:17:25.778Z,63.70
2023-04-11T07:19:52.618Z,64.20
2023-04-11T07:22:19.686Z,65.00
2023-04-11T07:24:46.907Z,66.40
2023-04-11T07:27:17.145Z,66.80
2023-04-11T07:29:44.050Z,67.70
2023-04-11T07:32:10.983Z,68.60
2023-04-11T07:34:38.452Z,69.40
2023-04-11T07:37:05.338Z,70.20
2023-04-11T07:39:33.349Z,70.90
2023-04-11T07:42:00.206Z,71.60
2023-04-11T07:44:27.389Z,71.90
2023-04-11T07:46:54.466Z,72.20
2023-04-11T07:49:21.896Z,72.50
2023-04-11T07:51:48.766Z,73.10
2023-04-11T07:54:15.727Z,73.40
2023-04-11T07:56:42.534Z,73.90
2023-04-11T07:59:09.523Z,74.10
2023-04-11T08:01:36.433Z,74.60
2023-04-11T08:04:03.684Z,75.00
2023-04-11T08:06:31.469Z,75.40
2023-04-11T08:09:00.798Z,75.50
2023-04-11T08:11:27.790Z,75.70
2023-04-11T08:13:54.894Z,75.80
2023-04-11T08:16:21.994Z,76.30
2023-04-11T08:18:48.890Z,76.90
2023-04-11T08:21:16.955Z,77.90
2023-04-11T08:23:43.889Z,77.60
2023-04-11T08:26:12.913Z,77.70
2023-04-11T08:28:42.457Z,77.50
2023-04-11T08:31:10.721Z,77.60
2023-04-11T08:33:39.249Z,76.60
2023-04-11T08:36:10.177Z,75.60
2023-04-11T08:38:38.695Z,75.40
2023-04-11T08:41:06.346Z,75.70
2023-04-11T08:43:39.036Z,76.40
2023-04-11T08:46:11.706Z,76.00
2023-04-11T08:48:39.202Z,77.00
2023-04-11T08:51:06.662Z,77.30
2023-04-11T08:53:39.137Z,77.50
2023-04-11T08:56:06.449Z,77.10
2023-04-11T08:58:33.353Z,78.20
2023-04-11T09:01:27.514Z,78.50
2023-04-11T09:03:55.297Z,73.90
2023-04-11T09:06:22.604Z,76.90
2023-04-11T09:08:49.707Z,77.20
2023-04-11T09:11:17.979Z,76.80
2023-04-11T09:13:44.831Z,76.10
2023-04-11T09:16:14.006Z,75.30
2023-04-11T09:18:43.829Z,74.30
2023-04-11T09:21:14.700Z,74.30
2023-04-11T09:23:41.557Z,74.50
2023-04-11T09:26:13.296Z,65.80
2023-04-11T09:28:45.214Z,75.00
2023-04-11T09:31:13.046Z,75.00
2023-04-11T09:33:52.523Z,75.90
2023-04-11T09:36:24.836Z,76.70
2023-04-11T09:38:51.910Z,76.80
2023-04-11T09:41:32.134Z,75.20
2023-04-11T09:44:00.506Z,72.40
2023-04-11T09:46:27.488Z,75.10
2023-04-11T09:48:55.277Z,74.90
2023-04-11T09:53:54.686Z,75.30
2023-04-11T09:56:22.159Z,75.50
2023-04-11T09:58:50.201Z,75.60
2023-04-11T10:01:20.056Z,75.10
2023-04-11T10:03:50.874Z,74.50
2023-04-11T10:06:41.288Z,74.20
2023-04-11T10:09:11.687Z,66.90
2023-04-11T10:11:43.216Z,75.90
2023-04-11T10:14:42.753Z,75.60
2023-04-11T10:17:23.659Z,76.50
2023-04-11T10:19:57.698Z,74.60
2023-04-11T10:22:46.493Z,72.10
2023-04-11T10:25:24.711Z,71.00
2023-04-11T10:27:53.918Z,70.10
2023-04-11T10:31:08.892Z,75.50
2023-04-11T10:33:38.492Z,68.00
2023-04-11T10:36:10.836Z,74.10
2023-04-11T10:38:47.775Z,74.10
2023-04-11T10:41:25.222Z,70.20
2023-04-11T10:44:15.059Z,74.20
2023-04-11T10:46:55.841Z,73.70
2023-04-11T10:49:40.399Z,66.80
2023-04-11T10:52:23.070Z,67.50
2023-04-11T10:54:52.768Z,68.30
2023-04-11T10:57:21.523Z,74.40
2023-04-11T10:59:51.395Z,75.20
2023-04-11T11:02:19.712Z,74.10
2023-04-11T11:04:47.462Z,74.70
2023-04-11T11:07:18.718Z,74.60
2023-04-11T11:09:52.506Z,74.20
2023-04-11T11:12:19.375Z,71.20
2023-04-11T11:14:47.493Z,73.00
2023-04-11T11:17:17.314Z,72.70
2023-04-11T11:19:48.628Z,71.80
2023-04-11T11:22:25.768Z,72.70
2023-04-11T11:24:53.408Z,74.90
2023-04-11T11:27:22.826Z,76.50
2023-04-11T11:29:51.305Z,76.30
2023-04-11T11:32:36.270Z,75.30
2023-04-11T11:35:15.522Z,65.00
2023-04-11T11:37:42.685Z,65.80
2023-04-11T11:40:14.206Z,72.20
2023-04-11T11:42:41.613Z,70.80
2023-04-11T11:45:16.189Z,72.00
2023-04-11T11:47:45.690Z,65.50
2023-04-11T11:50:29.168Z,70.00
2023-04-11T11:53:13.432Z,64.00
2023-04-11T11:55:41.563Z,71.40
2023-04-11T11:58:08.990Z,69.80
2023-04-11T12:00:39.614Z,69.00
2023-04-11T12:03:11.757Z,67.30
2023-04-11T12:05:39.093Z,65.90
2023-04-11T12:08:07.723Z,67.00
2023-04-11T12:10:45.623Z,66.30
2023-04-11T12:13:22.570Z,60.90
2023-04-11T12:16:02.136Z,61.60
2023-04-11T12:18:29.016Z,57.80
2023-04-11T12:20:55.992Z,69.00
2023-04-11T12:23:23.215Z,68.10
2023-04-11T12:25:50.549Z,67.80
2023-04-11T12:28:17.589Z,67.90
2023-04-11T12:30:44.447Z,68.10
2023-04-11T12:33:11.316Z,68.90
2023-04-11T12:35:38.225Z,67.60
2023-04-11T12:38:05.040Z,67.00
2023-04-11T12:40:32.066Z,66.70
2023-04-11T12:42:58.922Z,65.80
2023-04-11T12:45:27.643Z,66.80
2023-04-11T12:47:54.606Z,66.20
2023-04-11T12:50:23.578Z,66.80
2023-04-11T12:52:50.970Z,66.70
2023-04-11T12:55:18.001Z,69.20
2023-04-11T12:57:44.950Z,66.90
2023-04-11T13:00:13.280Z,64.20
2023-04-11T13:02:44.671Z,63.20
2023-04-11T13:05:15.301Z,63.20
2023-04-11T13:07:45.069Z,62.80
2023-04-11T13:10:14.022Z,62.50
2023-04-11T13:12:44.393Z,61.70
2023-04-11T13:15:13.607Z,62.90
2023-04-11T13:17:40.783Z,61.80
2023-04-11T13:20:10.388Z,61.90
2023-04-11T13:22:39.669Z,62.10
2023-04-11T13:25:07.544Z,62.10
2023-04-11T13:27:35.074Z,60.50
2023-04-11T13:30:04.822Z,62.90
2023-04-11T13:32:32.417Z,62.60
2023-04-11T13:34:59.872Z,62.90
2023-04-11T13:37:27.119Z,63.20
2023-04-11T13:39:54.053Z,63.60
2023-04-11T13:42:23.835Z,62.20
2023-04-11T13:44:50.735Z,62.50
2023-04-11T13:47:17.694Z,62.80
2023-04-11T13:49:44.750Z,63.70
2023-04-11T13:52:11.621Z,65.40
2023-04-11T13:54:39.105Z,65.30
2023-04-11T13:57:07.835Z,67.50
2023-04-11T13:59:35.643Z,69.00
2023-04-11T14:02:02.776Z,70.00
2023-04-11T14:04:29.892Z,69.40
2023-04-11T14:06:57.199Z,66.50
2023-04-11T14:09:24.092Z,64.90
2023-04-11T14:11:51.231Z,65.10
2023-04-11T14:14:18.096Z,63.60
2023-04-11T14:16:44.968Z,63.40
2023-04-11T14:19:11.822Z,63.80
2023-04-11T14:21:38.770Z,65.20
2023-04-11T14:24:06.090Z,65.50
2023-04-11T14:26:32.910Z,67.90
2023-04-11T14:28:59.751Z,65.90
2023-04-11T14:31:27.307Z,64.10
2023-04-11T14:33:54.353Z,63.60
2023-04-11T14:36:21.454Z,62.50
2023-04-11T14:38:48.991Z,61.60
2023-04-11T14:41:15.850Z,62.30
2023-04-11T14:43:42.617Z,60.80
2023-04-11T14:46:10.740Z,61.30
2023-04-11T14:48:37.586Z,62.80
2023-04-11T14:51:04.850Z,63.60
2023-04-11T14:53:32.437Z,65.10
2023-04-11T14:55:59.373Z,66.50
2023-04-11T14:58:26.239Z,64.80
2023-04-11T15:00:53.127Z,63.70
2023-04-11T15:03:20.269Z,63.10
2023-04-11T15:05:47.362Z,61.70
2023-04-11T15:08:14.397Z,61.80
2023-04-11T15:10:41.445Z,62.10
2023-04-11T15:13:09.141Z,62.50
2023-04-11T15:15:36.559Z,62.30
2023-04-11T15:18:24.803Z,62.10
2023-04-11T15:20:52.577Z,58.20
2023-04-11T15:23:20.941Z,63.10
2023-04-11T15:26:01.094Z,64.10
2023-04-11T15:28:34.411Z,63.30
2023-04-11T15:31:02.513Z,63.60
2023-04-11T15:33:31.376Z,67.40
2023-04-11T15:36:00.605Z,68.10
2023-04-11T15:38:28.719Z,64.40
2023-04-11T15:40:59.337Z,60.90
2023-04-11T15:43:26.362Z,61.10
2023-04-11T15:45:54.551Z,61.50
2023-04-11T15:48:21.480Z,60.30
2023-04-11T15:50:48.546Z,61.70
2023-04-11T15:53:15.631Z,60.00
2023-04-11T15:55:43.674Z,58.60
2023-04-11T15:58:10.605Z,56.80
2023-04-11T16:00:39.464Z,56.80
2023-04-11T16:03:08.594Z,56.40
2023-04-11T16:05:41.209Z,56.20
2023-04-11T16:08:08.568Z,58.10
2023-04-11T16:10:35.519Z,58.40
2023-04-11T16:13:02.933Z,58.90
2023-04-11T16:15:29.873Z,60.90
2023-04-11T16:17:56.733Z,60.60
2023-04-11T16:20:23.664Z,62.20
2023-04-11T16:22:50.549Z,61.90
2023-04-11T16:25:20.858Z,59.90
2023-04-11T16:27:48.412Z,59.10
2023-04-11T16:30:15.635Z,56.90
2023-04-11T16:32:43.567Z,55.80
2023-04-11T16:35:10.784Z,53.90
2023-04-11T16:37:37.741Z,53.80
2023-04-11T16:40:11.549Z,52.60
2023-04-11T16:42:39.551Z,53.00
2023-04-11T16:45:08.137Z,53.70
2023-04-11T16:47:35.208Z,54.40
2023-04-11T16:50:02.315Z,56.10
2023-04-11T16:52:29.518Z,57.00
2023-04-11T16:54:56.392Z,56.70
2023-04-11T16:57:24.991Z,56.40
2023-04-11T16:59:51.952Z,55.60
2023-04-11T17:02:18.871Z,55.60
2023-04-11T17:04:45.801Z,54.70
2023-04-11T17:07:12.852Z,55.10
2023-04-11T17:09:41.428Z,54.30
2023-04-11T17:12:08.366Z,54.10
2023-04-11T17:14:36.432Z,53.60
2023-04-11T17:17:03.547Z,54.60
2023-04-11T17:19:30.753Z,55.40
2023-04-11T17:21:57.653Z,56.20
2023-04-11T17:24:25.004Z,56.60
2023-04-11T17:26:52.312Z,57.60
2023-04-11T17:29:20.238Z,57.70
2023-04-11T17:31:47.126Z,58.30
2023-04-11T17:34:13.980Z,58.60
2023-04-11T17:36:42.844Z,59.00
2023-04-11T17:39:16.960Z,59.00
2023-04-11T17:41:45.671Z,59.30
2023-04-11T17:44:13.397Z,59.90
2023-04-11T17:46:40.357Z,60.60
2023-04-11T17:49:07.261Z,60.90
2023-04-11T17:51:34.126Z,60.60
2023-04-11T17:54:01.156Z,61.20
2023-04-11T17:56:28.028Z,61.40
2023-04-11T17:58:56.145Z,61.20
2023-04-11T18:01:23.780Z,61.30
2023-04-11T18:03:50.878Z,61.80
2023-04-11T18:06:18.190Z,61.80
2023-04-11T18:08:50.296Z,61.70
2023-04-11T18:11:17.660Z,62.00
2023-04-11T18:13:44.771Z,62.20
2023-04-11T18:16:12.145Z,62.30
2023-04-11T18:18:39.177Z,62.30
2023-04-11T18:21:07.765Z,62.40
2023-04-11T18:23:35.273Z,62.00
2023-04-11T18:26:02.170Z,62.30
2023-04-11T18:28:29.382Z,62.60
2023-04-11T18:30:56.716Z,62.80
2023-04-11T18:33:23.838Z,62.70
2023-04-11T18:35:50.742Z,62.80
2023-04-11T18:38:17.714Z,62.80
2023-04-11T18:40:44.636Z,63.00
2023-04-11T18:43:11.503Z,63.00
2023-04-11T18:45:39.406Z,63.10
2023-04-11T18:48:07.184Z,63.30
2023-04-11T18:50:38.798Z,63.50
2023-04-11T18:53:09.228Z,63.40
2023-04-11T18:55:38.693Z,63.50
2023-04-11T18:58:09.192Z,63.60
2023-04-11T19:00:36.708Z,63.90
2023-04-11T19:03:05.164Z,64.20
2023-04-11T19:05:33.463Z,64.30
2023-04-11T19:08:00.852Z,64.20
2023-04-11T19:10:27.866Z,64.30
2023-04-11T19:12:54.811Z,64.20
2023-04-11T19:15:21.724Z,64.30
2023-04-11T19:17:48.676Z,64.40
2023-04-11T19:20:16.741Z,64.50
2023-04-11T19:22:43.825Z,64.50
2023-04-11T19:25:11.971Z,64.50
2023-04-11T19:27:41.869Z,64.60
2023-04-11T19:30:11.519Z,64.60
2023-04-11T19:32:40.963Z,64.60
2023-04-11T19:35:10.882Z,64.50
2023-04-11T19:37:38.595Z,64.50
2023-04-11T19:40:07.333Z,64.80
2023-04-11T19:42:37.292Z,64.60
2023-04-11T19:45:05.140Z,65.40
2023-04-11T19:47:32.826Z,65.00
2023-04-11T19:50:01.099Z,65.00
2023-04-11T19:52:28.947Z,65.20
2023-04-11T19:54:56.887Z,65.20
2023-04-11T19:57:27.779Z,65.00
2023-04-11T19:59:54.687Z,64.60
2023-04-11T20:02:21.717Z,60.00
2023-04-11T20:04:49.512Z,65.40
2023-04-11T20:07:16.757Z,65.30
2023-04-11T20:09:43.815Z,65.70
2023-04-11T20:12:10.785Z,65.70
2023-04-11T20:14:38.329Z,65.60
2023-04-11T20:17:06.293Z,65.60
2023-04-11T20:19:33.464Z,65.60
2023-04-11T20:22:03.126Z,65.80
2023-04-11T20:24:29.982Z,65.80
2023-04-11T20:26:57.065Z,65.80
2023-04-11T20:29:30.944Z,66.00
2023-04-11T20:31:58.596Z,66.10
2023-04-11T20:34:25.555Z,66.20
2023-04-11T20:36:52.511Z,66.20
2023-04-11T20:39:19.318Z,66.20
2023-04-11T20:41:46.229Z,66.20
2023-04-11T20:44:17.614Z,66.20
2023-04-11T20:46:45.141Z,66.20
2023-04-11T20:49:11.973Z,66.10
2023-04-11T20:51:38.822Z,66.20
2023-04-11T20:54:05.696Z,66.30
2023-04-11T20:56:35.287Z,66.30
2023-04-11T20:59:03.486Z,66.30
2023-04-11T21:01:32.797Z,66.40
2023-04-11T21:04:03.915Z,66.40
2023-04-11T21:06:32.083Z,66.40
2023-04-11T21:09:04.241Z,66.70
2023-04-11T21:11:32.020Z,66.20
2023-04-11T21:13:58.982Z,67.00
2023-04-11T21:16:26.165Z,67.60
2023-04-11T21:18:53.077Z,67.20
2023-04-11T21:21:19.938Z,67.30
2023-04-11T21:23:46.769Z,67.30
2023-04-11T21:26:13.614Z,67.30
2023-04-11T21:28:40.505Z,67.20
2023-04-11T21:31:07.372Z,67.10
2023-04-11T21:33:34.305Z,67.00
2023-04-11T21:36:01.615Z,67.10
2023-04-11T21:38:29.022Z,67.00
2023-04-11T21:40:57.146Z,67.00
2023-04-11T21:43:24.416Z,67.00
2023-04-11T21:45:51.328Z,67.10
2023-04-11T21:48:18.187Z,67.20
2023-04-11T21:50:45.944Z,67.30
2023-04-11T21:53:13.980Z,67.40
2023-04-11T21:55:47.101Z,67.60
2023-04-11T21:58:28.055Z,66.80
2023-04-11T22:00:55.776Z,67.70
2023-04-11T22:03:23.070Z,67.70
2023-04-11T22:05:52.188Z,67.80
2023-04-11T22:08:20.093Z,67.90
2023-04-11T22:10:48.357Z,68.00
2023-04-11T22:13:18.119Z,68.10
2023-04-11T22:15:46.924Z,68.10
2023-04-11T22:18:14.038Z,68.20
2023-04-11T22:20:46.141Z,68.30
2023-04-11T22:23:13.741Z,68.30
2023-04-11T22:25:44.353Z,68.30
2023-04-11T22:28:20.860Z,67.90
2023-04-11T22:30:47.670Z,68.10
2023-04-11T22:33:15.339Z,68.50
2023-04-11T22:35:47.653Z,68.60
2023-04-11T22:38:17.405Z,68.70
2023-04-11T22:40:44.327Z,68.90
2023-04-11T22:43:11.606Z,68.80
2023-04-11T22:45:38.447Z,69.00
2023-04-11T22:48:06.216Z,69.00
2023-04-11T22:50:37.261Z,69.00
2023-04-11T22:53:05.266Z,69.10
2023-04-11T22:55:35.869Z,69.20
2023-04-11T22:58:03.479Z,69.30
2023-04-11T23:00:31.418Z,69.20
2023-04-11T23:02:59.800Z,69.20
2023-04-11T23:05:26.867Z,69.20
2023-04-11T23:07:53.672Z,69.10
2023-04-11T23:10:20.576Z,69.00
2023-04-11T23:12:49.062Z,69.00
2023-04-11T23:15:16.239Z,69.10
2023-04-11T23:17:43.702Z,69.10
2023-04-11T23:20:13.069Z,69.10
2023-04-11T23:22:43.159Z,69.10
2023-04-11T23:25:15.011Z,69.20
2023-04-11T23:27:43.937Z,68.90
2023-04-11T23:30:12.251Z,69.40
2023-04-11T23:32:39.982Z,69.40
2023-04-11T23:35:08.167Z,69.40
2023-04-11T23:37:35.031Z,69.40
2023-04-11T23:40:10.857Z,69.60
2023-04-11T23:42:38.812Z,69.60
2023-04-11T23:45:10.709Z,69.60
2023-04-11T23:47:38.320Z,69.20
2023-04-11T23:50:05.859Z,69.70
2023-04-11T23:52:34.194Z,69.60
2023-04-11T23:55:01.103Z,69.80
2023-04-11T23:57:28.046Z,69.80
2023-04-11T23:59:54.862Z,69.90
